Time;durP1;ratioP1;P1;durP2;ratioP2;P2;SDS_P1;SDS_P2;PMS_P1;PMS_P2;Temp;Humidity;BMP_temperature;BMP_pressure;BME280_temperature;BME280_humidity;BME280_pressure;Samples;Min_cycle;Max_cycle;Signal;HPM_P1;HPM_P2
2022/07/09 00:00:23;;;;;;;13.32;4.47;;;16.50;99.90;;;;;;4992461;28;20557;-75
2022/07/09 00:02:48;;;;;;;17.80;4.50;;;16.40;99.90;;;;;;5001158;28;20037;-77
2022/07/09 00:05:15;;;;;;;13.88;4.00;;;16.40;99.90;;;;;;4993247;28;20042;-75
2022/07/09 00:07:41;;;;;;;15.57;4.30;;;16.50;99.90;;;;;;4998471;28;20018;-77
2022/07/09 00:10:07;;;;;;;11.60;3.95;;;16.50;99.90;;;;;;4996773;28;20049;-76
2022/07/09 00:12:33;;;;;;;13.18;3.92;;;16.50;99.90;;;;;;4997731;28;20462;-75
2022/07/09 00:14:59;;;;;;;16.10;3.90;;;16.50;99.90;;;;;;4991371;28;20060;-77
2022/07/09 00:17:26;;;;;;;11.68;4.28;;;16.50;99.90;;;;;;4997380;28;20422;-76
2022/07/09 00:19:53;;;;;;;10.93;3.70;;;16.40;99.90;;;;;;4992088;28;20117;-76
2022/07/09 00:22:18;;;;;;;14.77;4.75;;;16.40;99.90;;;;;;4983624;28;20029;-76
2022/07/09 00:24:44;;;;;;;14.93;4.40;;;16.40;99.90;;;;;;4976453;28;20044;-77
2022/07/09 00:27:10;;;;;;;14.88;3.97;;;16.40;99.90;;;;;;4994763;28;20670;-77
2022/07/09 00:29:35;;;;;;;18.10;4.93;;;16.40;99.90;;;;;;4997097;28;20041;-76
2022/07/09 00:32:01;;;;;;;8.18;3.63;;;16.40;99.90;;;;;;4996722;28;20041;-76
2022/07/09 00:34:27;;;;;;;15.80;3.90;;;16.40;99.90;;;;;;4999700;28;20030;-75
2022/07/09 00:36:53;;;;;;;14.60;4.55;;;16.40;99.90;;;;;;4994152;28;20025;-77
2022/07/09 00:39:18;;;;;;;13.63;4.07;;;16.40;99.90;;;;;;4995815;28;20029;-77
2022/07/09 00:41:44;;;;;;;15.80;4.78;;;16.30;99.90;;;;;;5000149;28;20058;-77
2022/07/09 00:44:10;;;;;;;11.90;4.70;;;16.30;99.90;;;;;;4997370;28;20120;-77
2022/07/09 00:46:35;;;;;;;15.77;4.07;;;16.40;99.90;;;;;;4998517;28;20034;-77
2022/07/09 00:49:03;;;;;;;13.57;3.72;;;16.40;99.90;;;;;;4988317;28;20026;-77
2022/07/09 00:51:30;;;;;;;12.48;4.43;;;16.40;99.90;;;;;;4998944;28;20076;-77
2022/07/09 00:53:56;;;;;;;15.77;4.70;;;16.40;99.90;;;;;;4992561;28;20030;-76
2022/07/09 00:56:23;;;;;;;12.48;4.35;;;16.40;99.90;;;;;;5000819;28;20030;-76
2022/07/09 00:58:50;;;;;;;12.63;4.18;;;16.40;99.90;;;;;;4993920;28;20042;-75
2022/07/09 01:01:16;;;;;;;11.85;4.15;;;16.40;99.90;;;;;;4995676;28;20054;-77
2022/07/09 01:03:42;;;;;;;15.43;4.57;;;16.40;99.90;;;;;;4995323;28;21996;-77
2022/07/09 01:06:07;;;;;;;14.60;4.55;;;16.40;99.90;;;;;;4995265;28;20037;-76
2022/07/09 01:08:33;;;;;;;16.08;5.05;;;16.40;99.90;;;;;;4997540;28;20030;-76
2022/07/09 01:11:01;;;;;;;13.90;4.93;;;16.40;99.90;;;;;;4990348;28;20027;-77
2022/07/09 01:13:26;;;;;;;12.18;4.40;;;16.40;99.90;;;;;;4993885;28;20389;-76
2022/07/09 01:15:52;;;;;;;10.98;4.15;;;16.30;99.90;;;;;;4998559;28;20034;-76
2022/07/09 01:18:19;;;;;;;15.90;4.80;;;16.30;99.90;;;;;;4993834;28;20041;-76
2022/07/09 01:20:44;;;;;;;8.98;3.47;;;16.30;99.90;;;;;;4990673;28;20034;-76
2022/07/09 01:23:10;;;;;;;13.52;4.43;;;16.30;99.90;;;;;;4992183;28;20040;-76
2022/07/09 01:25:38;;;;;;;9.27;3.90;;;16.30;99.90;;;;;;4977804;28;20030;-78
2022/07/09 01:28:06;;;;;;;15.20;4.25;;;16.30;99.90;;;;;;4976226;28;20401;-76
2022/07/09 01:30:33;;;;;;;12.98;4.63;;;16.30;99.90;;;;;;4994497;28;20018;-76
2022/07/09 01:32:58;;;;;;;15.48;6.45;;;16.30;99.90;;;;;;4994314;28;20033;-75
2022/07/09 01:35:24;;;;;;;11.48;4.28;;;16.30;99.90;;;;;;4994642;28;20029;-76
2022/07/09 01:37:50;;;;;;;16.70;4.90;;;16.30;99.90;;;;;;4996470;28;20034;-76
2022/07/09 01:40:16;;;;;;;11.05;4.20;;;16.30;99.90;;;;;;4994012;28;20029;-75
2022/07/09 01:42:42;;;;;;;14.20;4.55;;;16.30;99.90;;;;;;4995662;28;20030;-76
2022/07/09 01:45:08;;;;;;;12.00;4.97;;;16.30;99.90;;;;;;4995261;28;20022;-76
2022/07/09 01:47:34;;;;;;;10.52;4.15;;;16.30;99.90;;;;;;4994161;28;20033;-76
2022/07/09 01:50:00;;;;;;;10.68;4.40;;;16.30;99.90;;;;;;4984747;28;20030;-76
2022/07/09 01:52:26;;;;;;;12.75;4.47;;;16.30;99.90;;;;;;4978932;28;20037;-76
2022/07/09 01:54:51;;;;;;;10.55;4.43;;;16.30;99.90;;;;;;4990943;28;20471;-76
2022/07/09 01:57:17;;;;;;;11.77;4.25;;;16.30;99.90;;;;;;4999877;28;20022;-76
2022/07/09 01:59:43;;;;;;;13.13;4.50;;;16.20;99.90;;;;;;4990845;28;20394;-77
2022/07/09 02:02:08;;;;;;;16.95;6.05;;;16.30;99.90;;;;;;4997645;28;20105;-77
2022/07/09 02:04:34;;;;;;;13.23;4.88;;;16.30;99.90;;;;;;4994521;28;20038;-76
2022/07/09 02:07:00;;;;;;;14.23;3.85;;;16.30;99.90;;;;;;4978516;28;20025;-75
2022/07/09 02:09:28;;;;;;;14.68;4.32;;;16.30;99.90;;;;;;4988038;28;20041;-74
2022/07/09 02:11:53;;;;;;;10.77;4.50;;;16.30;99.90;;;;;;4998616;28;20026;-76
2022/07/09 02:14:19;;;;;;;14.52;4.40;;;16.30;99.90;;;;;;4993518;28;20089;-76
2022/07/09 02:16:45;;;;;;;15.55;4.57;;;16.30;99.90;;;;;;4980382;28;20033;-76
2022/07/09 02:19:10;;;;;;;15.18;4.43;;;16.30;99.90;;;;;;4992029;28;20395;-76
2022/07/09 02:21:36;;;;;;;16.05;4.00;;;16.20;99.90;;;;;;5001296;28;21770;-76
2022/07/09 02:24:02;;;;;;;8.38;3.20;;;16.30;99.90;;;;;;4996650;28;20077;-76
2022/07/09 02:26:29;;;;;;;14.23;4.32;;;16.30;99.90;;;;;;4992967;28;20054;-76
2022/07/09 02:28:58;;;;;;;9.05;3.88;;;16.30;99.90;;;;;;4991664;28;20041;-77
2022/07/09 02:31:25;;;;;;;13.43;4.28;;;16.30;99.90;;;;;;4996272;28;20034;-76
2022/07/09 02:33:51;;;;;;;10.00;4.10;;;16.30;99.90;;;;;;4995974;28;20030;-76
2022/07/09 02:36:16;;;;;;;15.48;3.97;;;16.30;99.90;;;;;;4988189;28;20065;-74
2022/07/09 02:38:42;;;;;;;12.68;3.65;;;16.30;99.90;;;;;;4978015;28;20121;-76
2022/07/09 02:41:08;;;;;;;10.75;3.45;;;16.30;99.90;;;;;;4985446;28;20487;-76
2022/07/09 02:43:34;;;;;;;11.70;4.22;;;16.30;99.90;;;;;;4992437;28;20034;-77
2022/07/09 02:46:00;;;;;;;12.55;4.32;;;16.30;99.90;;;;;;4995087;28;20045;-77
2022/07/09 02:48:26;;;;;;;13.55;4.40;;;16.30;99.90;;;;;;4995062;28;20037;-77
2022/07/09 02:50:53;;;;;;;11.40;4.72;;;16.30;99.90;;;;;;4996471;28;20038;-77
2022/07/09 02:53:19;;;;;;;11.57;4.65;;;16.30;99.90;;;;;;4994373;28;20036;-77
2022/07/09 02:55:45;;;;;;;10.85;4.18;;;16.40;99.90;;;;;;4996995;28;20030;-77
2022/07/09 02:58:11;;;;;;;9.88;3.97;;;16.30;99.90;;;;;;4997316;28;20609;-76
2022/07/09 03:00:41;;;;;;;15.15;4.13;;;16.40;99.90;;;;;;4999083;28;20034;-77
2022/07/09 03:03:07;;;;;;;13.52;4.45;;;16.30;99.90;;;;;;4994796;28;20038;-76
2022/07/09 03:05:34;;;;;;;11.55;3.40;;;16.30;99.90;;;;;;4980840;28;20502;-77
2022/07/09 03:08:00;;;;;;;9.15;4.32;;;16.40;99.90;;;;;;4995283;28;20029;-77
2022/07/09 03:10:29;;;;;;;20.10;5.00;;;16.40;99.90;;;;;;4996264;28;20022;-76
2022/07/09 03:12:55;;;;;;;15.25;4.82;;;16.40;99.90;;;;;;4998008;28;20106;-76
2022/07/09 03:15:21;;;;;;;10.52;3.58;;;16.30;99.90;;;;;;4997162;28;20030;-77
2022/07/09 03:17:48;;;;;;;9.70;3.70;;;16.30;99.90;;;;;;4998746;28;20040;-76
2022/07/09 03:20:14;;;;;;;11.32;4.07;;;16.30;99.90;;;;;;4994942;28;20030;-76
2022/07/09 03:22:41;;;;;;;12.60;4.00;;;16.30;99.90;;;;;;4998497;28;20502;-76
2022/07/09 03:25:07;;;;;;;14.73;4.50;;;16.30;99.90;;;;;;4974625;28;20414;-76
2022/07/09 03:27:34;;;;;;;13.52;4.10;;;16.30;99.90;;;;;;4997306;28;20044;-77
2022/07/09 03:30:02;;;;;;;9.82;3.88;;;16.30;99.90;;;;;;4995742;28;20032;-77
2022/07/09 03:32:29;;;;;;;12.82;3.88;;;16.30;99.90;;;;;;4995935;28;20084;-77
2022/07/09 03:34:54;;;;;;;14.30;4.53;;;16.30;99.90;;;;;;5000538;28;20414;-77
2022/07/09 03:37:21;;;;;;;15.10;4.55;;;16.30;99.90;;;;;;5010375;28;20030;-76
2022/07/09 03:39:47;;;;;;;15.15;4.75;;;16.30;99.90;;;;;;4987565;28;20034;-77
2022/07/09 03:42:14;;;;;;;11.32;4.35;;;16.30;99.90;;;;;;5001934;28;20053;-77
2022/07/09 03:44:40;;;;;;;13.10;4.80;;;16.20;99.90;;;;;;5003158;28;20029;-77
2022/07/09 03:47:06;;;;;;;12.25;5.03;;;16.20;99.90;;;;;;5002100;28;20518;-77
2022/07/09 03:49:33;;;;;;;14.82;4.55;;;16.20;99.90;;;;;;4993201;28;20057;-77
2022/07/09 03:51:59;;;;;;;10.82;4.60;;;16.20;99.90;;;;;;5000783;28;20080;-76
2022/07/09 03:54:25;;;;;;;14.35;4.72;;;16.20;99.90;;;;;;4998543;28;20147;-77
2022/07/09 03:56:51;;;;;;;10.32;4.93;;;16.10;99.90;;;;;;4998337;28;20101;-76
2022/07/09 03:59:17;;;;;;;9.18;3.90;;;16.10;99.90;;;;;;4992936;28;20038;-76
2022/07/09 04:01:43;;;;;;;10.80;4.32;;;16.10;99.90;;;;;;4997168;28;20084;-76
2022/07/09 04:04:09;;;;;;;10.98;4.15;;;16.10;99.90;;;;;;4997262;28;20022;-76
2022/07/09 04:06:34;;;;;;;11.70;3.95;;;16.10;99.90;;;;;;4998803;28;20464;-77
2022/07/09 04:09:04;;;;;;;10.35;4.38;;;16.10;99.90;;;;;;4996723;28;20545;-77
2022/07/09 04:11:31;;;;;;;13.55;5.00;;;16.10;99.90;;;;;;4991384;28;20030;-76
2022/07/09 04:13:58;;;;;;;11.85;4.78;;;16.10;99.90;;;;;;4989822;28;20034;-76
2022/07/09 04:16:23;;;;;;;9.43;4.97;;;16.10;99.90;;;;;;5002421;28;20026;-75
2022/07/09 04:18:49;;;;;;;15.00;5.25;;;16.10;99.90;;;;;;4993928;28;20105;-76
2022/07/09 04:21:16;;;;;;;16.48;5.45;;;16.20;99.90;;;;;;4998384;28;20083;-75
2022/07/09 04:23:42;;;;;;;11.88;4.82;;;16.10;99.90;;;;;;4998715;28;20041;-76
2022/07/09 04:26:09;;;;;;;13.10;5.05;;;16.20;99.90;;;;;;4977779;28;20026;-76
2022/07/09 04:28:37;;;;;;;9.68;4.28;;;16.20;99.90;;;;;;4996854;28;20038;-76
2022/07/09 04:31:04;;;;;;;8.40;4.53;;;16.20;99.90;;;;;;4992090;28;20025;-76
2022/07/09 04:33:29;;;;;;;12.30;4.72;;;16.20;99.90;;;;;;4993412;28;20149;-77
2022/07/09 04:35:55;;;;;;;9.18;4.68;;;16.30;99.90;;;;;;4993558;28;20463;-77
2022/07/09 04:38:21;;;;;;;10.50;4.43;;;16.30;99.90;;;;;;4997593;28;20026;-76
2022/07/09 04:40:47;;;;;;;10.77;4.30;;;16.30;99.90;;;;;;4994719;28;20065;-75
2022/07/09 04:43:13;;;;;;;10.05;4.57;;;16.30;99.90;;;;;;4977354;28;20164;-75
2022/07/09 04:45:38;;;;;;;9.70;4.53;;;16.30;99.90;;;;;;4993565;28;20030;-75
2022/07/09 04:48:04;;;;;;;10.30;4.88;;;16.30;99.90;;;;;;4998535;28;20030;-77
2022/07/09 04:50:30;;;;;;;9.80;4.07;;;16.30;99.90;;;;;;4993581;28;20585;-77
2022/07/09 04:52:56;;;;;;;9.65;4.38;;;16.30;99.90;;;;;;4996904;28;20061;-76
2022/07/09 04:55:22;;;;;;;8.57;3.53;;;16.30;99.90;;;;;;4997072;28;20057;-76
2022/07/09 04:57:48;;;;;;;10.93;4.57;;;16.40;99.90;;;;;;4979980;28;20540;-74
2022/07/09 05:00:15;;;;;;;12.82;3.67;;;16.40;99.90;;;;;;4993712;28;20065;-76
2022/07/09 05:02:42;;;;;;;8.50;4.00;;;16.40;99.90;;;;;;5012807;28;20033;-77
2022/07/09 05:05:08;;;;;;;7.40;3.90;;;16.50;99.90;;;;;;4980023;28;20386;-76
2022/07/09 05:07:34;;;;;;;8.70;3.83;;;16.50;99.90;;;;;;4992538;28;20034;-76
2022/07/09 05:10:01;;;;;;;7.72;3.90;;;16.50;99.90;;;;;;4994149;28;20026;-76
2022/07/09 05:12:28;;;;;;;8.32;3.40;;;16.50;99.90;;;;;;4995380;28;20034;-76
2022/07/09 05:14:54;;;;;;;6.75;3.50;;;16.50;99.90;;;;;;4995307;28;20511;-76
2022/07/09 05:17:20;;;;;;;7.63;3.75;;;16.60;99.90;;;;;;4995563;28;20482;-76
2022/07/09 05:19:46;;;;;;;8.23;4.00;;;16.60;99.90;;;;;;4994563;28;20059;-75
2022/07/09 05:22:11;;;;;;;6.88;3.88;;;16.60;99.90;;;;;;4987869;28;20129;-76
2022/07/09 05:24:37;;;;;;;8.18;3.42;;;16.60;99.90;;;;;;4995260;28;20033;-76
2022/07/09 05:27:03;;;;;;;8.88;4.13;;;16.60;99.90;;;;;;4990977;28;20509;-76
2022/07/09 05:29:29;;;;;;;4.45;3.22;;;16.60;99.90;;;;;;4995417;28;20109;-74
2022/07/09 05:31:57;;;;;;;7.00;3.30;;;16.70;99.90;;;;;;4970074;28;20113;-75
2022/07/09 05:34:24;;;;;;;9.20;3.70;;;16.70;99.90;;;;;;4999360;28;20030;-76
2022/07/09 05:36:51;;;;;;;10.05;3.38;;;16.70;99.90;;;;;;4992575;28;20035;-75
2022/07/09 05:39:18;;;;;;;7.50;3.00;;;16.70;99.90;;;;;;4993793;28;20553;-76
2022/07/09 05:41:43;;;;;;;6.70;3.22;;;16.70;99.90;;;;;;4992852;28;20034;-75
2022/07/09 05:44:09;;;;;;;8.32;3.50;;;16.70;99.90;;;;;;4998088;28;20034;-76
2022/07/09 05:46:35;;;;;;;7.63;3.55;;;16.70;99.90;;;;;;4993975;28;20041;-76
2022/07/09 05:49:02;;;;;;;11.57;3.70;;;16.80;99.90;;;;;;4993767;28;20025;-76
2022/07/09 05:51:28;;;;;;;9.75;3.72;;;16.80;99.90;;;;;;4992622;28;20026;-75
2022/07/09 05:53:53;;;;;;;11.15;4.07;;;16.80;99.90;;;;;;4992870;28;20368;-76
2022/07/09 05:56:19;;;;;;;11.25;4.20;;;16.80;99.90;;;;;;4998097;28;20042;-78
2022/07/09 05:58:45;;;;;;;14.38;3.60;;;16.90;99.90;;;;;;4999200;28;20026;-76
2022/07/09 06:01:12;;;;;;;12.68;3.97;;;16.90;99.90;;;;;;4996050;28;20050;-76
2022/07/09 06:03:39;;;;;;;9.88;3.83;;;16.90;99.90;;;;;;4995685;28;20087;-76
2022/07/09 06:06:05;;;;;;;7.72;3.88;;;17.00;99.90;;;;;;4993876;28;20053;-76
2022/07/09 06:08:32;;;;;;;6.53;3.25;;;17.00;99.90;;;;;;4975682;28;20441;-76
2022/07/09 06:10:57;;;;;;;17.02;3.65;;;17.00;99.90;;;;;;4968139;28;20026;-76
2022/07/09 06:13:23;;;;;;;12.38;4.93;;;17.10;99.90;;;;;;4993288;28;20037;-76
2022/07/09 06:15:49;;;;;;;7.93;4.07;;;17.10;99.90;;;;;;5001527;28;20045;-75
2022/07/09 06:18:16;;;;;;;8.85;4.25;;;17.10;99.90;;;;;;5021894;28;20034;-74
2022/07/09 06:20:41;;;;;;;12.50;4.28;;;17.10;99.90;;;;;;5018532;28;20133;-74
2022/07/09 06:23:07;;;;;;;7.68;4.07;;;17.10;99.90;;;;;;5017928;28;20034;-74
2022/07/09 06:25:33;;;;;;;9.90;4.35;;;17.20;99.90;;;;;;5016020;28;20089;-76
2022/07/09 06:27:59;;;;;;;10.82;4.35;;;17.20;99.90;;;;;;4992808;28;20105;-75
2022/07/09 06:30:28;;;;;;;9.20;4.20;;;17.30;99.90;;;;;;4995654;28;20074;-76
2022/07/09 06:32:54;;;;;;;7.50;4.35;;;17.30;99.90;;;;;;4988315;28;20034;-76
2022/07/09 06:35:20;;;;;;;6.60;3.63;;;17.40;99.90;;;;;;4992865;28;20023;-75
2022/07/09 06:37:45;;;;;;;11.43;4.00;;;17.40;99.90;;;;;;4987613;28;20528;-75
2022/07/09 06:40:12;;;;;;;7.35;4.45;;;17.50;99.90;;;;;;5003520;28;20612;-76
2022/07/09 06:42:39;;;;;;;6.90;3.30;;;17.50;99.90;;;;;;4995896;28;20045;-76
2022/07/09 06:45:05;;;;;;;9.30;4.28;;;17.50;99.90;;;;;;4996455;28;20398;-75
2022/07/09 06:47:30;;;;;;;7.82;2.97;;;17.60;99.90;;;;;;5002266;28;20038;-76
2022/07/09 06:49:56;;;;;;;6.10;3.85;;;17.60;99.90;;;;;;5001719;28;20030;-76
2022/07/09 06:52:22;;;;;;;7.20;3.40;;;17.70;99.90;;;;;;4994661;28;20035;-75
2022/07/09 06:54:48;;;;;;;8.27;3.40;;;17.80;99.90;;;;;;4996356;28;20141;-76
2022/07/09 06:57:16;;;;;;;6.78;3.20;;;17.80;99.90;;;;;;4995538;28;20026;-76
2022/07/09 06:59:42;;;;;;;7.32;3.20;;;17.90;99.90;;;;;;4992818;28;20483;-75
2022/07/09 07:02:08;;;;;;;7.15;2.92;;;18.00;99.90;;;;;;4995416;28;20022;-77
2022/07/09 07:04:34;;;;;;;7.20;2.92;;;18.00;99.90;;;;;;4995537;28;20029;-77
2022/07/09 07:06:59;;;;;;;9.25;2.85;;;18.00;99.90;;;;;;4995861;28;20023;-77
2022/07/09 07:09:25;;;;;;;10.00;3.08;;;18.00;99.90;;;;;;5000015;28;20387;-76
2022/07/09 07:11:52;;;;;;;5.43;2.90;;;18.00;99.90;;;;;;4999024;28;20019;-76
2022/07/09 07:14:18;;;;;;;7.57;2.80;;;17.90;99.90;;;;;;4983237;28;20036;-77
2022/07/09 07:16:44;;;;;;;5.88;3.28;;;18.00;99.90;;;;;;4998107;28;20030;-77
2022/07/09 07:19:10;;;;;;;7.45;3.05;;;17.90;99.90;;;;;;4985977;28;20025;-77
2022/07/09 07:21:37;;;;;;;6.95;3.25;;;17.90;99.90;;;;;;4987287;28;20031;-76
2022/07/09 07:24:04;;;;;;;7.28;3.08;;;18.00;99.90;;;;;;5011557;28;20069;-77
2022/07/09 07:26:30;;;;;;;10.48;3.75;;;18.00;99.90;;;;;;4993990;28;20030;-76
2022/07/09 07:28:55;;;;;;;8.40;3.25;;;18.00;99.90;;;;;;4995401;28;20019;-76
2022/07/09 07:31:22;;;;;;;6.85;3.03;;;18.20;99.90;;;;;;4995481;28;20022;-77
2022/07/09 07:33:48;;;;;;;6.35;3.03;;;18.30;99.90;;;;;;4999155;28;20026;-76
2022/07/09 07:36:14;;;;;;;7.50;2.90;;;18.40;99.90;;;;;;4996518;28;20038;-76
2022/07/09 07:38:40;;;;;;;5.18;2.70;;;18.50;99.90;;;;;;4996186;28;20042;-76
2022/07/09 07:41:05;;;;;;;6.88;2.85;;;18.50;99.90;;;;;;4991814;28;20025;-76
2022/07/09 07:43:31;;;;;;;5.70;2.42;;;18.50;99.90;;;;;;4970921;28;20046;-77
2022/07/09 07:45:57;;;;;;;6.45;2.92;;;18.50;99.90;;;;;;4992606;28;20112;-77
2022/07/09 07:48:23;;;;;;;4.07;2.47;;;18.50;99.90;;;;;;4995494;28;20054;-76
2022/07/09 07:50:48;;;;;;;6.50;2.30;;;18.60;99.90;;;;;;4997925;28;20022;-76
2022/07/09 07:53:14;;;;;;;4.75;1.98;;;18.80;99.90;;;;;;4976880;28;20026;-75
2022/07/09 07:55:40;;;;;;;5.53;1.98;;;18.90;99.90;;;;;;4989509;28;20040;-76
2022/07/09 07:58:05;;;;;;;6.43;2.25;;;18.80;99.90;;;;;;4996358;28;20034;-78
2022/07/09 08:00:31;;;;;;;6.07;2.40;;;19.00;99.90;;;;;;4998219;28;20029;-75
2022/07/09 08:02:57;;;;;;;6.35;2.40;;;19.10;99.90;;;;;;4996179;28;20077;-76
2022/07/09 08:05:23;;;;;;;4.57;2.00;;;19.20;99.90;;;;;;4987586;28;20421;-76
2022/07/09 08:07:48;;;;;;;6.20;2.10;;;19.10;99.90;;;;;;4980107;28;20025;-77
2022/07/09 08:10:14;;;;;;;5.00;2.60;;;19.00;99.90;;;;;;4979342;28;20564;-77
2022/07/09 08:12:40;;;;;;;5.18;2.65;;;19.10;99.90;;;;;;4995541;28;20018;-76
2022/07/09 08:15:06;;;;;;;6.45;2.83;;;19.00;99.90;;;;;;4987045;28;20122;-75
2022/07/09 08:17:32;;;;;;;4.53;2.10;;;19.00;99.90;;;;;;4990546;28;20038;-76
2022/07/09 08:19:57;;;;;;;3.08;1.92;;;19.00;99.90;;;;;;4988384;28;20081;-76
2022/07/09 08:22:23;;;;;;;3.25;1.50;;;19.20;99.90;;;;;;4991732;28;20497;-75
2022/07/09 08:24:49;;;;;;;4.32;2.15;;;19.40;99.90;;;;;;4985546;28;20044;-74
2022/07/09 08:27:15;;;;;;;5.50;2.10;;;19.40;99.90;;;;;;4994109;28;20030;-76
2022/07/09 08:29:40;;;;;;;4.57;1.80;;;19.30;99.90;;;;;;4985040;28;20034;-75
2022/07/09 08:32:06;;;;;;;5.20;2.30;;;19.20;99.90;;;;;;4979548;28;20034;-76
2022/07/09 08:34:32;;;;;;;6.60;2.15;;;19.10;99.90;;;;;;4981992;28;20228;-74
2022/07/09 08:36:58;;;;;;;4.43;2.00;;;19.10;99.90;;;;;;4973740;28;20485;-74
2022/07/09 08:39:23;;;;;;;3.95;2.08;;;19.00;99.90;;;;;;4975704;28;20034;-74
2022/07/09 08:41:50;;;;;;;7.78;2.72;;;19.00;99.90;;;;;;4986914;28;20169;-76
2022/07/09 08:44:19;;;;;;;4.90;2.35;;;19.10;99.90;;;;;;4990837;28;20034;-76
2022/07/09 08:46:45;;;;;;;5.97;2.00;;;19.10;99.90;;;;;;4987397;28;20030;-76
2022/07/09 08:49:15;;;;;;;6.65;1.50;;;19.00;99.90;;;;;;4992707;28;20517;-72
2022/07/09 08:51:42;;;;;;;6.10;1.70;;;19.00;99.90;;;;;;4989065;28;20861;-76
2022/07/09 08:54:08;;;;;;;3.22;1.60;;;19.10;99.90;;;;;;4980777;28;20289;-76
2022/07/09 08:56:35;;;;;;;7.00;2.95;;;19.20;99.90;;;;;;4984596;28;20088;-78
2022/07/09 08:59:02;;;;;;;7.40;2.33;;;19.10;99.90;;;;;;4985927;28;20139;-75
2022/07/09 09:01:27;;;;;;;3.25;1.77;;;19.20;99.90;;;;;;4985699;28;20030;-76
2022/07/09 09:03:54;;;;;;;6.15;1.85;;;19.20;99.90;;;;;;4984201;28;20021;-75
2022/07/09 09:06:22;;;;;;;6.25;1.65;;;19.40;99.90;;;;;;4985855;28;20030;-72
2022/07/09 09:08:48;;;;;;;6.53;1.58;;;19.40;99.90;;;;;;4982076;28;20030;-70
2022/07/09 09:11:25;;;;;;;4.35;1.50;;;19.50;99.90;;;;;;4982036;28;20029;-71
2022/07/09 09:13:51;;;;;;;5.32;1.50;;;19.60;99.90;;;;;;4988148;28;20030;-74
2022/07/09 09:16:18;;;;;;;2.75;1.10;;;19.80;99.90;;;;;;4981065;28;20165;-75
2022/07/09 09:18:46;;;;;;;6.43;1.35;;;20.00;99.90;;;;;;4989826;28;20491;-75
2022/07/09 09:21:15;;;;;;;6.07;1.45;;;20.10;99.90;;;;;;4976368;28;20026;-75
2022/07/09 09:23:40;;;;;;;3.55;1.40;;;20.20;99.90;;;;;;4993873;28;20034;-74
2022/07/09 09:26:17;;;;;;;5.15;1.42;;;20.20;99.90;;;;;;4985597;28;20034;-76
2022/07/09 09:28:52;;;;;;;4.70;1.40;;;20.30;99.90;;;;;;4990352;28;20026;-76
2022/07/09 09:31:18;;;;;;;2.97;1.23;;;20.20;99.90;;;;;;5004842;28;20034;-77
2022/07/09 09:33:44;;;;;;;4.10;1.70;;;20.10;99.90;;;;;;4990013;28;20026;-77
2022/07/09 09:36:10;;;;;;;3.75;1.58;;;20.10;99.90;;;;;;4989945;28;20058;-76
2022/07/09 09:38:35;;;;;;;4.32;1.60;;;20.20;99.90;;;;;;4996687;28;20063;-76
2022/07/09 09:41:01;;;;;;;5.45;1.55;;;20.30;99.90;;;;;;4991784;28;20512;-76
2022/07/09 09:43:30;;;;;;;2.97;1.20;;;20.30;99.90;;;;;;4993498;28;20041;-77
2022/07/09 09:45:58;;;;;;;2.25;0.95;;;20.30;99.90;;;;;;4994107;28;20118;-77
2022/07/09 09:48:24;;;;;;;3.95;1.17;;;20.30;99.90;;;;;;4993127;28;20473;-76
2022/07/09 09:50:55;;;;;;;4.45;1.38;;;20.40;99.90;;;;;;4990612;28;20026;-76
2022/07/09 09:53:23;;;;;;;3.97;1.40;;;20.60;99.90;;;;;;5007896;28;20022;-78
2022/07/09 09:55:50;;;;;;;5.30;1.20;;;20.80;99.90;;;;;;4992804;28;20030;-76
2022/07/09 09:58:16;;;;;;;3.40;1.00;;;20.70;99.90;;;;;;4992918;28;20030;-74
2022/07/09 10:00:42;;;;;;;4.25;1.38;;;20.60;99.90;;;;;;4987041;28;20038;-74
2022/07/09 10:03:11;;;;;;;4.28;1.58;;;20.60;99.90;;;;;;4990672;28;20034;-77
2022/07/09 10:05:37;;;;;;;5.05;1.40;;;20.60;99.90;;;;;;4973993;28;20414;-76
2022/07/09 10:08:03;;;;;;;2.00;1.02;;;20.60;99.90;;;;;;4991220;28;20033;-75
2022/07/09 10:10:28;;;;;;;3.22;1.25;;;20.60;99.90;;;;;;4974895;28;20034;-78
2022/07/09 10:12:54;;;;;;;3.85;1.48;;;20.50;99.90;;;;;;4970335;28;20037;-74
2022/07/09 10:15:26;;;;;;;2.83;1.20;;;20.50;99.90;;;;;;4974091;28;20022;-75
2022/07/09 10:17:53;;;;;;;2.03;1.23;;;20.50;99.90;;;;;;4983719;28;20045;-77
2022/07/09 10:20:31;;;;;;;1.70;0.80;;;20.70;99.90;;;;;;4982722;28;20022;-76
2022/07/09 10:22:57;;;;;;;5.50;1.30;;;20.80;99.90;;;;;;4962398;28;20417;-76
2022/07/09 10:25:29;;;;;;;3.33;1.05;;;20.90;99.90;;;;;;4982271;28;20080;-76
2022/07/09 10:27:54;;;;;;;3.13;1.10;;;20.90;99.90;;;;;;4982808;28;20029;-75
2022/07/09 10:30:30;;;;;;;3.13;1.00;;;20.80;99.90;;;;;;4977274;28;20058;-76
2022/07/09 10:33:22;;;;;;;4.03;0.90;;;20.90;99.90;;;;;;4986355;28;20034;-75
2022/07/09 10:35:52;;;;;;;1.92;0.90;;;20.90;99.90;;;;;;4971580;28;20058;-77
2022/07/09 10:38:20;;;;;;;4.17;1.23;;;20.90;99.90;;;;;;4990328;28;20058;-76
2022/07/09 10:41:06;;;;;;;1.92;1.02;;;21.00;99.90;;;;;;4999021;28;20349;-76
2022/07/09 10:43:45;;;;;;;2.92;1.02;;;21.10;99.90;;;;;;4999049;28;20038;-74
2022/07/09 10:46:12;;;;;;;2.20;1.00;;;21.30;99.90;;;;;;4998372;28;20034;-73
2022/07/09 10:48:38;;;;;;;2.28;0.90;;;21.30;99.90;;;;;;4999886;28;20022;-75
2022/07/09 10:51:04;;;;;;;5.95;1.30;;;21.20;99.90;;;;;;4996434;28;20032;-74
2022/07/09 10:53:30;;;;;;;3.67;1.40;;;21.00;99.90;;;;;;4995826;28;20027;-72
2022/07/09 10:55:57;;;;;;;4.53;1.13;;;20.80;99.90;;;;;;4987055;28;20040;-71
2022/07/09 10:58:24;;;;;;;2.10;1.10;;;20.60;99.90;;;;;;4997699;28;20089;-73
2022/07/09 11:00:58;;;;;;;5.28;1.23;;;20.50;99.90;;;;;;4989234;28;20555;-74
2022/07/09 11:03:30;;;;;;;5.00;1.20;;;20.60;99.90;;;;;;4988611;28;20056;-73
2022/07/09 11:05:57;;;;;;;2.70;1.13;;;20.60;99.90;;;;;;4990267;28;20462;-74
2022/07/09 11:08:23;;;;;;;2.38;0.90;;;20.90;99.90;;;;;;4994374;28;20030;-73
2022/07/09 11:10:49;;;;;;;4.80;1.30;;;21.10;99.90;;;;;;4992405;28;20500;-73
2022/07/09 11:13:14;;;;;;;3.28;1.00;;;21.20;99.90;;;;;;4996324;28;20030;-74
2022/07/09 11:15:40;;;;;;;2.75;1.10;;;21.20;99.90;;;;;;4993970;28;20034;-74
2022/07/09 11:18:09;;;;;;;3.50;1.20;;;21.30;99.90;;;;;;4998124;28;20052;-73
2022/07/09 11:20:44;;;;;;;1.95;0.98;;;21.40;99.90;;;;;;4997626;28;20068;-73
2022/07/09 11:23:11;;;;;;;5.13;2.13;;;21.80;99.90;;;;;;4997272;28;20025;-73
2022/07/09 11:25:37;;;;;;;3.42;1.02;;;22.50;99.90;;;;;;4981001;28;20049;-74
2022/07/09 11:28:04;;;;;;;2.33;0.90;;;23.60;99.30;;;;;;4997517;28;20109;-75
2022/07/09 11:30:32;;;;;;;3.00;0.90;;;24.90;96.40;;;;;;4998394;28;20026;-74
2022/07/09 11:32:58;;;;;;;3.50;0.90;;;26.00;93.50;;;;;;4994438;28;20033;-74
2022/07/09 11:35:30;;;;;;;1.58;0.90;;;25.80;91.30;;;;;;4993348;28;20087;-73
2022/07/09 11:37:58;;;;;;;1.95;0.90;;;25.50;90.90;;;;;;4996349;28;20290;-74
2022/07/09 11:40:24;;;;;;;1.55;0.80;;;25.60;90.80;;;;;;4997105;28;20034;-74
2022/07/09 11:42:51;;;;;;;1.27;0.60;;;25.00;90.30;;;;;;4996584;28;20030;-73
2022/07/09 11:45:24;;;;;;;4.68;0.90;;;25.00;90.50;;;;;;4994263;28;20046;-74
2022/07/09 11:48:01;;;;;;;3.72;0.95;;;26.40;86.30;;;;;;4990231;28;20087;-75
2022/07/09 11:50:27;;;;;;;1.90;0.70;;;27.80;81.40;;;;;;4995854;28;20062;-75
2022/07/09 11:52:53;;;;;;;2.72;0.85;;;29.10;73.40;;;;;;4993524;28;20030;-75
2022/07/09 11:55:21;;;;;;;1.27;0.70;;;29.50;70.20;;;;;;4998778;28;20399;-74
2022/07/09 11:58:05;;;;;;;2.45;0.98;;;29.70;66.70;;;;;;4994991;28;20120;-75
2022/07/09 12:00:33;;;;;;;1.38;0.68;;;29.90;63.30;;;;;;4990566;28;20022;-75
2022/07/09 12:03:03;;;;;;;2.90;0.70;;;30.00;60.90;;;;;;4996808;28;20029;-77
2022/07/09 12:05:35;;;;;;;2.75;1.30;;;28.90;63.90;;;;;;4995387;28;20023;-75
2022/07/09 12:08:07;;;;;;;1.95;0.93;;;29.20;62.60;;;;;;4994132;28;20489;-74
2022/07/09 12:10:35;;;;;;;2.78;0.90;;;28.40;63.80;;;;;;4992895;28;20026;-74
2022/07/09 12:13:01;;;;;;;2.38;1.08;;;27.90;63.80;;;;;;4992627;28;20022;-75
2022/07/09 12:15:28;;;;;;;1.95;0.85;;;27.60;63.30;;;;;;4993774;28;20025;-75
2022/07/09 12:17:58;;;;;;;3.75;1.00;;;27.30;64.40;;;;;;4996764;28;20417;-74
2022/07/09 12:20:25;;;;;;;;;;;27.50;65.50;;;;;;4993934;28;20103;-76
2022/07/09 12:22:51;;;;;;;4.13;1.10;;;27.50;65.20;;;;;;4996011;28;19909;-75
2022/07/09 12:25:18;;;;;;;4.63;1.15;;;27.40;65.20;;;;;;4996734;28;20061;-75
2022/07/09 12:27:44;;;;;;;3.65;1.20;;;27.10;66.10;;;;;;4998156;28;20062;-76
2022/07/09 12:30:11;;;;;;;2.92;1.02;;;27.20;66.20;;;;;;4999397;28;20050;-76
2022/07/09 12:32:37;;;;;;;1.60;0.93;;;27.60;64.90;;;;;;4994534;28;20038;-76
2022/07/09 12:35:04;;;;;;;3.65;1.27;;;28.00;65.10;;;;;;4996631;28;20025;-75
2022/07/09 12:37:29;;;;;;;5.78;1.00;;;28.30;61.90;;;;;;4990771;28;20026;-76
2022/07/09 12:39:55;;;;;;;9.57;2.05;;;28.30;61.70;;;;;;4991648;28;20025;-75